Time;durP1;ratioP1;P1;durP2;ratioP2;P2;SDS_P1;SDS_P2;PMS_P1;PMS_P2;Temp;Humidity;BMP_temperature;BMP_pressure;BME280_temperature;BME280_humidity;BME280_pressure;Samples;Min_cycle;Max_cycle;Signal;HPM_P1;HPM_P2
2021/03/10 00:02:13;;;;;;;37.90;18.17;;;6.00;99.90;;;;;;5033242;28;20033;-59
2021/03/10 00:04:39;;;;;;;35.70;17.33;;;6.10;99.90;;;;;;5035003;28;20029;-59
2021/03/10 00:07:04;;;;;;;36.97;17.85;;;6.10;99.90;;;;;;5039865;28;20079;-59
2021/03/10 00:09:30;;;;;;;37.65;19.02;;;6.10;99.90;;;;;;5030862;28;20972;-60
2021/03/10 00:11:55;;;;;;;39.50;19.35;;;6.10;99.90;;;;;;5030630;28;20021;-60
2021/03/10 00:14:21;;;;;;;42.92;21.85;;;6.10;99.90;;;;;;5025369;28;20044;-61
2021/03/10 00:16:47;;;;;;;61.20;25.88;;;6.10;99.90;;;;;;5049429;28;20028;-59
2021/03/10 00:19:12;;;;;;;54.53;26.65;;;6.20;99.90;;;;;;5050247;28;20025;-59
2021/03/10 00:21:38;;;;;;;61.53;28.73;;;6.20;99.90;;;;;;5049677;28;20025;-60
2021/03/10 00:24:04;;;;;;;61.67;29.73;;;6.20;99.90;;;;;;5045073;28;20471;-59
2021/03/10 00:26:29;;;;;;;59.90;29.20;;;6.10;99.90;;;;;;5050480;28;20025;-60
2021/03/10 00:28:55;;;;;;;75.70;33.22;;;6.20;99.90;;;;;;5048706;28;20021;-59
2021/03/10 00:31:20;;;;;;;64.38;31.60;;;6.20;99.90;;;;;;5045255;28;20028;-60
2021/03/10 00:33:46;;;;;;;70.22;33.47;;;6.30;99.90;;;;;;5065530;28;20055;-59
2021/03/10 00:36:11;;;;;;;71.70;33.30;;;6.30;99.90;;;;;;5069419;28;20040;-58
2021/03/10 00:38:37;;;;;;;70.18;31.88;;;6.20;99.90;;;;;;5073219;28;20029;-59
2021/03/10 00:41:03;;;;;;;78.15;33.70;;;6.10;99.90;;;;;;5057104;28;20396;-58
2021/03/10 00:43:29;;;;;;;70.93;32.60;;;6.20;99.90;;;;;;5049884;28;20025;-59
2021/03/10 00:45:54;;;;;;;69.95;32.13;;;6.20;99.90;;;;;;5046698;28;20029;-59
2021/03/10 00:48:20;;;;;;;74.97;33.50;;;6.20;99.90;;;;;;5031142;28;20027;-60
2021/03/10 00:50:45;;;;;;;74.28;33.50;;;6.20;99.90;;;;;;5045833;28;20406;-60
2021/03/10 00:53:11;;;;;;;69.65;33.20;;;6.20;99.90;;;;;;5048737;28;20056;-59
2021/03/10 00:55:37;;;;;;;69.65;31.90;;;6.20;99.90;;;;;;5049785;28;20028;-60
2021/03/10 00:58:02;;;;;;;58.38;30.05;;;6.30;99.90;;;;;;5048819;28;20033;-60
2021/03/10 01:00:28;;;;;;;72.75;30.30;;;6.30;99.90;;;;;;5049131;28;20506;-60
2021/03/10 01:02:53;;;;;;;71.20;32.60;;;6.30;99.90;;;;;;5032709;28;20033;-60
2021/03/10 01:05:19;;;;;;;63.47;30.73;;;6.30;99.90;;;;;;5062300;28;20049;-60
2021/03/10 01:07:45;;;;;;;70.18;31.75;;;6.40;99.90;;;;;;5067405;28;20033;-59
2021/03/10 01:10:11;;;;;;;72.47;32.63;;;6.40;99.90;;;;;;5064522;28;20100;-59
2021/03/10 01:12:38;;;;;;;67.25;31.02;;;6.40;99.90;;;;;;5070788;22;20049;-68
2021/03/10 01:15:13;;;;;;;73.18;34.92;;;6.40;99.90;;;;;;5066245;28;20040;-66
2021/03/10 01:17:38;;;;;;;73.63;35.05;;;6.30;99.90;;;;;;5088643;28;20034;-66
2021/03/10 01:20:16;;;;;;;78.03;35.53;;;6.20;99.90;;;;;;5064124;28;20123;-66
2021/03/10 01:22:41;;;;;;;81.63;35.78;;;6.20;99.90;;;;;;5088177;28;20527;-65
2021/03/10 01:25:08;;;;;;;79.93;36.22;;;6.20;99.90;;;;;;5054498;28;20028;-67
2021/03/10 01:27:34;;;;;;;75.75;35.22;;;6.20;99.90;;;;;;5091317;28;20078;-66
2021/03/10 01:30:00;;;;;;;75.30;34.10;;;6.20;99.90;;;;;;5090888;28;20401;-67
2021/03/10 01:32:26;;;;;;;68.03;33.72;;;6.20;99.90;;;;;;5096296;28;20028;-65
2021/03/10 01:34:51;;;;;;;67.95;32.05;;;6.20;99.90;;;;;;5085263;28;20056;-67
2021/03/10 01:37:17;;;;;;;69.32;33.53;;;6.30;99.90;;;;;;5094661;28;20486;-66
2021/03/10 01:39:43;;;;;;;71.55;34.45;;;6.20;99.90;;;;;;5094109;28;20529;-66
2021/03/10 01:42:08;;;;;;;75.47;32.38;;;6.20;99.90;;;;;;5091335;28;20032;-65
2021/03/10 01:44:34;;;;;;;76.38;33.83;;;6.10;99.90;;;;;;5075781;28;20020;-67
2021/03/10 01:47:01;;;;;;;72.40;33.28;;;6.10;99.90;;;;;;5073150;28;20035;-65
2021/03/10 01:49:27;;;;;;;68.30;31.13;;;6.10;99.90;;;;;;5060637;28;20175;-65
2021/03/10 01:51:53;;;;;;;61.92;29.00;;;6.10;99.90;;;;;;5086282;28;20119;-66
2021/03/10 01:54:19;;;;;;;58.20;28.75;;;6.10;99.90;;;;;;5088017;28;20107;-67
2021/03/10 01:56:45;;;;;;;69.38;29.20;;;6.10;99.90;;;;;;5083763;28;20030;-66
2021/03/10 01:59:11;;;;;;;65.03;29.70;;;5.90;99.90;;;;;;5082743;28;20036;-67
2021/03/10 02:01:37;;;;;;;64.13;28.05;;;5.90;99.90;;;;;;5092808;28;20612;-66
2021/03/10 02:04:04;;;;;;;63.03;27.98;;;5.80;99.90;;;;;;5089852;28;20052;-65
2021/03/10 02:06:47;;;;;;;58.42;26.58;;;5.80;99.90;;;;;;5087627;28;20035;-69
2021/03/10 02:09:24;;;;;;;51.17;25.67;;;5.70;99.90;;;;;;5104361;28;20561;-66
2021/03/10 02:12:22;;;;;;;72.00;28.80;;;5.60;99.90;;;;;;5097899;28;20020;-66
2021/03/10 02:14:58;;;;;;;57.13;26.83;;;5.60;99.90;;;;;;5090603;28;20059;-66
2021/03/10 02:17:29;;;;;;;59.67;25.77;;;5.60;99.90;;;;;;5067617;28;20374;-67
2021/03/10 02:20:03;;;;;;;64.20;27.67;;;5.50;99.90;;;;;;5079871;28;20475;-67
2021/03/10 02:23:00;;;;;;;57.17;26.35;;;5.40;99.90;;;;;;5098430;28;20039;-67
2021/03/10 02:26:14;;;;;;;54.80;26.48;;;5.50;99.90;;;;;;5099111;28;20016;-68
2021/03/10 02:28:41;;;;;;;63.80;27.08;;;5.40;99.90;;;;;;5002256;28;20053;-67
2021/03/10 02:31:10;;;;;;;58.67;26.13;;;5.40;99.90;;;;;;5084916;28;20039;-66
2021/03/10 02:33:38;;;;;;;54.42;26.65;;;5.40;99.90;;;;;;5096786;28;20054;-67
2021/03/10 02:36:14;;;;;;;62.47;28.30;;;5.30;99.90;;;;;;5084218;28;20012;-66
2021/03/10 02:38:43;;;;;;;59.30;27.52;;;5.40;99.90;;;;;;5086909;28;20412;-67
2021/03/10 02:41:11;;;;;;;57.13;26.13;;;5.30;99.90;;;;;;5103457;28;20050;-67
2021/03/10 02:43:38;;;;;;;60.78;26.75;;;5.40;99.90;;;;;;5077563;28;20059;-66
2021/03/10 02:46:05;;;;;;;57.45;25.15;;;5.30;99.90;;;;;;5088420;28;20025;-65
2021/03/10 02:48:31;;;;;;;61.35;27.60;;;5.20;99.90;;;;;;5095756;28;20028;-67
2021/03/10 02:50:57;;;;;;;65.40;28.55;;;5.20;99.90;;;;;;5084107;28;20028;-66
2021/03/10 02:53:23;;;;;;;59.80;27.50;;;5.20;99.90;;;;;;5095725;28;20490;-66
2021/03/10 02:55:49;;;;;;;60.45;26.17;;;5.20;99.90;;;;;;5093928;28;20020;-66
2021/03/10 02:58:15;;;;;;;65.82;28.48;;;5.20;99.90;;;;;;5067808;28;20027;-68
2021/03/10 03:00:42;;;;;;;60.00;28.38;;;5.20;99.90;;;;;;5098270;28;20042;-67
2021/03/10 03:03:08;;;;;;;66.82;28.92;;;5.20;99.90;;;;;;5088130;28;20101;-68
2021/03/10 03:05:34;;;;;;;72.45;31.50;;;5.10;99.90;;;;;;5093558;28;20077;-67
2021/03/10 03:08:01;;;;;;;72.50;29.73;;;5.00;99.90;;;;;;5100785;28;20035;-67
2021/03/10 03:10:31;;;;;;;77.32;32.63;;;5.00;99.90;;;;;;5099037;28;20027;-68
2021/03/10 03:12:59;;;;;;;77.55;34.70;;;5.00;99.90;;;;;;5065027;28;20221;-67
2021/03/10 03:15:25;;;;;;;83.45;34.88;;;5.00;99.90;;;;;;5073851;28;20021;-66
2021/03/10 03:17:52;;;;;;;86.28;37.25;;;5.10;99.90;;;;;;5073230;28;20060;-69
2021/03/10 03:20:20;;;;;;;83.78;34.25;;;5.10;99.90;;;;;;5072341;28;20028;-66
2021/03/10 03:22:52;;;;;;;92.93;36.58;;;5.00;99.90;;;;;;5067212;28;20033;-65
2021/03/10 03:25:19;;;;;;;96.68;39.30;;;5.00;99.90;;;;;;5059236;28;20031;-65
2021/03/10 03:27:59;;;;;;;96.97;39.50;;;5.00;99.90;;;;;;5054236;28;20038;-67
2021/03/10 03:30:25;;;;;;;94.20;39.25;;;5.10;99.90;;;;;;5064502;28;20027;-68
2021/03/10 03:32:53;;;;;;;101.63;40.53;;;5.00;99.90;;;;;;5064179;28;20067;-67
2021/03/10 03:35:20;;;;;;;112.32;42.13;;;5.00;99.90;;;;;;5073803;28;20116;-66
2021/03/10 03:37:48;;;;;;;105.47;42.00;;;5.00;99.90;;;;;;5073454;28;20059;-66
2021/03/10 03:40:15;;;;;;;116.90;44.92;;;5.00;99.90;;;;;;5054594;28;20398;-66
2021/03/10 03:42:41;;;;;;;119.40;47.58;;;5.00;99.90;;;;;;5054382;28;20494;-65
2021/03/10 03:45:08;;;;;;;119.60;44.90;;;5.00;99.90;;;;;;5044201;28;20087;-66
2021/03/10 03:47:34;;;;;;;115.00;46.40;;;5.00;99.90;;;;;;5065531;28;20056;-66
2021/03/10 03:50:00;;;;;;;107.53;45.50;;;5.10;99.90;;;;;;5053594;28;20032;-67
2021/03/10 03:52:26;;;;;;;110.10;47.17;;;5.10;99.90;;;;;;5056675;28;20020;-64
2021/03/10 03:54:51;;;;;;;114.03;46.63;;;5.10;99.90;;;;;;5070481;28;20475;-65
2021/03/10 03:57:17;;;;;;;127.82;49.53;;;5.00;99.90;;;;;;5065659;28;20043;-66
2021/03/10 03:59:43;;;;;;;118.40;46.45;;;5.00;99.90;;;;;;5070290;28;20409;-65
2021/03/10 04:02:08;;;;;;;122.40;48.60;;;5.00;99.90;;;;;;5054985;28;20489;-66
2021/03/10 04:04:34;;;;;;;104.45;46.88;;;5.00;99.90;;;;;;5052025;28;20055;-65
2021/03/10 04:07:00;;;;;;;132.00;48.90;;;5.20;99.90;;;;;;5069340;28;20024;-65
2021/03/10 04:09:26;;;;;;;120.93;49.03;;;5.10;99.90;;;;;;5038322;28;20016;-66
2021/03/10 04:11:51;;;;;;;131.50;51.00;;;5.10;99.90;;;;;;5070870;28;20434;-66
2021/03/10 04:14:18;;;;;;;124.90;48.10;;;5.00;99.90;;;;;;5064812;28;20052;-66
2021/03/10 04:16:44;;;;;;;131.85;50.67;;;5.00;99.90;;;;;;5070531;28;20025;-66
2021/03/10 04:19:10;;;;;;;121.35;49.72;;;5.00;99.90;;;;;;5052214;28;20020;-65
2021/03/10 04:21:36;;;;;;;107.97;48.47;;;5.00;99.90;;;;;;5066747;28;20025;-67
2021/03/10 04:24:03;;;;;;;125.70;48.22;;;4.90;99.90;;;;;;5066236;28;20048;-66
2021/03/10 04:26:28;;;;;;;110.72;48.17;;;5.00;99.90;;;;;;5071201;28;20035;-66
2021/03/10 04:28:54;;;;;;;101.72;45.83;;;5.00;99.90;;;;;;5069828;28;20025;-65
2021/03/10 04:31:19;;;;;;;105.20;44.55;;;5.00;99.90;;;;;;5065069;28;20027;-65
2021/03/10 04:33:45;;;;;;;103.28;45.55;;;5.00;99.90;;;;;;5069716;28;20099;-65
2021/03/10 04:36:11;;;;;;;111.30;45.08;;;5.00;99.90;;;;;;5070258;28;20120;-66
2021/03/10 04:38:36;;;;;;;91.22;42.72;;;5.00;99.90;;;;;;5063662;28;20423;-64
2021/03/10 04:41:03;;;;;;;103.57;42.90;;;5.00;99.90;;;;;;5062639;28;20032;-65
2021/03/10 04:43:28;;;;;;;98.38;43.03;;;4.90;99.90;;;;;;5069211;28;20543;-65
2021/03/10 04:45:54;;;;;;;95.95;42.60;;;4.90;99.90;;;;;;5068714;28;20098;-65
2021/03/10 04:48:20;;;;;;;97.95;41.28;;;5.00;99.90;;;;;;5065393;28;20103;-65
2021/03/10 04:50:45;;;;;;;92.50;42.35;;;4.90;99.90;;;;;;5058277;28;20024;-65
2021/03/10 04:53:11;;;;;;;85.30;41.25;;;4.90;99.90;;;;;;5064862;28;20021;-65
2021/03/10 04:55:37;;;;;;;88.53;40.58;;;4.90;99.90;;;;;;5059721;28;20589;-67
2021/03/10 04:58:03;;;;;;;84.80;39.95;;;4.90;99.90;;;;;;5054376;28;20574;-64
2021/03/10 05:00:28;;;;;;;82.13;38.70;;;5.00;99.90;;;;;;5069207;28;20025;-66
2021/03/10 05:02:54;;;;;;;86.25;40.03;;;4.90;99.90;;;;;;5061802;28;20029;-66
2021/03/10 05:05:20;;;;;;;86.68;39.67;;;4.80;99.90;;;;;;5069014;28;20044;-65
2021/03/10 05:07:45;;;;;;;86.75;40.70;;;4.90;99.90;;;;;;5067840;28;20065;-66
2021/03/10 05:10:12;;;;;;;98.63;43.05;;;4.90;99.90;;;;;;5063286;28;20554;-66
2021/03/10 05:12:38;;;;;;;92.53;43.50;;;4.90;99.90;;;;;;5047759;28;20070;-65
2021/03/10 05:15:04;;;;;;;99.30;46.00;;;4.90;99.90;;;;;;5068411;28;20033;-66
2021/03/10 05:17:30;;;;;;;104.93;45.42;;;4.90;99.90;;;;;;5071275;28;20028;-65
2021/03/10 05:19:57;;;;;;;93.97;44.95;;;4.90;99.90;;;;;;5064947;28;20046;-65
2021/03/10 05:22:27;;;;;;;88.45;43.78;;;4.80;99.90;;;;;;5054987;28;20036;-65
2021/03/10 05:24:53;;;;;;;101.28;44.20;;;4.80;99.90;;;;;;5050416;28;20024;-65
2021/03/10 05:27:19;;;;;;;99.20;43.15;;;4.80;99.90;;;;;;5053730;28;20522;-66
2021/03/10 05:29:45;;;;;;;98.53;44.35;;;4.80;99.90;;;;;;5060104;28;20224;-65
2021/03/10 05:32:11;;;;;;;78.68;39.30;;;4.90;99.90;;;;;;5062519;28;20027;-65
2021/03/10 05:34:37;;;;;;;88.30;41.30;;;4.90;99.90;;;;;;5070557;28;20396;-67
2021/03/10 05:37:03;;;;;;;92.30;43.42;;;4.90;99.90;;;;;;5072344;28;20016;-64
2021/03/10 05:39:29;;;;;;;94.07;42.83;;;4.90;99.90;;;;;;5072869;28;20024;-66
2021/03/10 05:41:58;;;;;;;82.53;40.63;;;4.90;99.90;;;;;;5054054;28;20390;-65
2021/03/10 05:44:25;;;;;;;82.28;41.15;;;4.90;99.90;;;;;;5074384;28;20040;-67
2021/03/10 05:46:54;;;;;;;85.25;40.58;;;4.90;99.90;;;;;;5081216;28;20021;-67
2021/03/10 05:49:20;;;;;;;84.72;40.20;;;4.90;99.90;;;;;;5067281;28;20047;-66
2021/03/10 05:51:46;;;;;;;89.65;40.47;;;4.80;99.90;;;;;;5079618;28;20024;-66
2021/03/10 05:54:13;;;;;;;82.60;40.70;;;4.80;99.90;;;;;;5066889;28;20028;-66
2021/03/10 05:56:43;;;;;;;75.35;39.28;;;4.80;99.90;;;;;;5080632;28;20027;-67
2021/03/10 05:59:09;;;;;;;95.43;39.65;;;4.80;99.90;;;;;;5078910;28;20032;-65
2021/03/10 06:01:34;;;;;;;78.05;39.30;;;4.80;99.90;;;;;;5059697;28;20024;-65
2021/03/10 06:04:02;;;;;;;82.22;39.63;;;4.80;99.90;;;;;;5057537;28;20032;-66
2021/03/10 06:06:36;;;;;;;83.75;39.03;;;4.70;99.90;;;;;;5067455;28;20024;-65
2021/03/10 06:09:13;;;;;;;81.10;37.92;;;4.80;99.90;;;;;;5074192;28;20016;-65
2021/03/10 06:11:39;;;;;;;79.50;37.85;;;4.90;99.90;;;;;;5054088;28;20024;-65
2021/03/10 06:14:17;;;;;;;72.03;36.35;;;4.80;99.90;;;;;;5064836;28;20533;-65
2021/03/10 06:16:42;;;;;;;76.68;37.33;;;4.80;99.90;;;;;;5071138;28;20033;-66
2021/03/10 06:19:08;;;;;;;79.80;37.78;;;4.80;99.90;;;;;;5066734;28;20970;-66
2021/03/10 06:21:34;;;;;;;75.53;36.53;;;4.70;99.90;;;;;;5067444;28;20016;-65
2021/03/10 06:24:04;;;;;;;80.22;37.78;;;4.80;99.90;;;;;;5074274;28;20028;-66
2021/03/10 06:26:33;;;;;;;77.90;37.47;;;4.70;99.90;;;;;;5062080;28;20025;-66
2021/03/10 06:29:00;;;;;;;77.97;37.85;;;4.80;99.90;;;;;;5070193;28;20379;-66
2021/03/10 06:31:30;;;;;;;78.78;38.05;;;4.80;99.90;;;;;;5064325;28;20080;-65
2021/03/10 06:33:59;;;;;;;79.53;36.42;;;4.80;99.90;;;;;;5062907;28;20040;-65
2021/03/10 06:36:26;;;;;;;78.00;36.22;;;4.80;99.90;;;;;;5062819;28;20021;-65
2021/03/10 06:38:52;;;;;;;72.88;35.50;;;4.80;99.90;;;;;;5049906;28;20028;-65
2021/03/10 06:41:36;;;;;;;80.10;38.10;;;4.80;99.90;;;;;;5062591;28;20448;-66
2021/03/10 06:44:12;;;;;;;72.65;35.95;;;4.80;99.90;;;;;;5060625;28;20039;-66
2021/03/10 06:46:48;;;;;;;70.78;36.42;;;4.80;99.90;;;;;;5060593;28;20635;-64
2021/03/10 06:49:13;;;;;;;86.30;36.50;;;4.80;99.90;;;;;;5063862;28;20063;-66
2021/03/10 06:51:54;;;;;;;75.10;34.60;;;4.80;99.90;;;;;;5074748;28;20390;-66
2021/03/10 06:54:19;;;;;;;77.57;36.17;;;4.80;99.90;;;;;;5074361;28;20020;-64
2021/03/10 06:56:45;;;;;;;85.70;38.47;;;4.80;99.90;;;;;;5069603;28;20025;-65
2021/03/10 06:59:11;;;;;;;85.82;37.20;;;4.90;99.90;;;;;;5054598;28;20024;-65
2021/03/10 07:01:41;;;;;;;81.30;37.88;;;4.90;99.90;;;;;;5089016;28;20028;-65
2021/03/10 07:04:12;;;;;;;85.72;37.33;;;4.90;99.90;;;;;;5058246;28;20516;-66
2021/03/10 07:06:39;;;;;;;71.90;34.78;;;5.00;99.90;;;;;;5076575;28;20025;-65
2021/03/10 07:09:12;;;;;;;81.28;38.08;;;5.00;99.90;;;;;;5074911;28;20028;-65
2021/03/10 07:11:38;;;;;;;88.03;37.92;;;5.10;99.90;;;;;;5053787;28;20487;-65
2021/03/10 07:14:04;;;;;;;78.45;38.10;;;5.10;99.90;;;;;;5064475;22;20061;-61
2021/03/10 07:16:32;;;;;;;75.97;35.80;;;5.10;99.90;;;;;;5048690;28;20017;-61
2021/03/10 07:18:58;;;;;;;75.82;36.40;;;5.10;99.90;;;;;;5078735;28;20048;-61
2021/03/10 07:21:34;;;;;;;78.97;36.85;;;5.20;99.90;;;;;;5063178;28;20016;-61
2021/03/10 07:24:01;;;;;;;78.38;35.22;;;5.20;99.90;;;;;;5078510;28;20779;-60
2021/03/10 07:26:27;;;;;;;67.40;34.53;;;5.20;99.90;;;;;;5077215;28;20028;-61
2021/03/10 07:29:00;;;;;;;77.20;35.38;;;5.20;99.90;;;;;;5091688;28;20032;-61
2021/03/10 07:31:26;;;;;;;78.50;35.00;;;5.30;99.90;;;;;;5058333;28;20016;-61
2021/03/10 07:33:55;;;;;;;72.70;36.88;;;5.30;99.90;;;;;;5080188;28;20109;-61
2021/03/10 07:36:35;;;;;;;72.53;37.60;;;5.30;99.90;;;;;;5071718;28;20028;-61
2021/03/10 07:39:02;;;;;;;79.15;36.30;;;5.30;99.90;;;;;;5071237;28;20048;-60
2021/03/10 07:41:33;;;;;;;73.22;35.00;;;5.30;99.90;;;;;;5071212;28;20042;-60
2021/03/10 07:43:59;;;;;;;85.88;38.00;;;5.30;99.90;;;;;;5069876;28;20612;-61
2021/03/10 07:46:31;;;;;;;70.65;34.80;;;5.30;99.90;;;;;;5071742;28;20127;-59
2021/03/10 07:48:58;;;;;;;78.93;36.05;;;5.30;99.90;;;;;;5070622;28;20036;-60
2021/03/10 07:51:32;;;;;;;80.22;36.53;;;5.40;99.90;;;;;;5070378;28;20032;-60
2021/03/10 07:53:59;;;;;;;76.40;36.80;;;5.30;99.90;;;;;;5067347;28;20044;-61
2021/03/10 07:56:30;;;;;;;79.03;36.03;;;5.30;99.90;;;;;;5070582;28;20016;-60
2021/03/10 07:59:16;;;;;;;68.00;34.88;;;5.40;99.90;;;;;;5073052;28;20103;-61
2021/03/10 08:01:42;;;;;;;80.70;35.92;;;5.40;99.90;;;;;;5074847;28;20430;-61
2021/03/10 08:04:11;;;;;;;75.97;35.53;;;5.50;99.90;;;;;;5066554;28;20021;-63
2021/03/10 08:06:55;;;;;;;72.68;34.55;;;5.60;99.90;;;;;;5072545;28;20035;-60
2021/03/10 08:09:23;;;;;;;81.78;35.53;;;5.70;99.90;;;;;;5070399;28;20057;-60
2021/03/10 08:12:03;;;;;;;69.28;33.42;;;5.80;99.90;;;;;;5077481;28;20024;-62
2021/03/10 08:14:39;;;;;;;72.40;34.90;;;5.90;99.90;;;;;;5096420;28;20101;-60
2021/03/10 08:17:07;;;;;;;80.53;35.50;;;5.90;99.90;;;;;;5100251;28;20024;-60
2021/03/10 08:19:33;;;;;;;70.30;34.58;;;5.90;99.90;;;;;;5102360;28;20089;-61
2021/03/10 08:21:59;;;;;;;79.30;37.53;;;5.90;99.90;;;;;;5098557;28;20027;-59
2021/03/10 08:24:25;;;;;;;74.32;35.15;;;5.90;99.90;;;;;;5093468;28;20115;-62
2021/03/10 08:26:56;;;;;;;66.20;34.97;;;5.90;99.90;;;;;;5071678;28;20020;-60
2021/03/10 08:29:22;;;;;;;71.95;35.65;;;5.90;99.90;;;;;;5092181;28;20035;-60
2021/03/10 08:31:54;;;;;;;73.68;35.45;;;5.90;99.90;;;;;;5101943;28;20046;-61
2021/03/10 08:34:36;;;;;;;72.93;32.38;;;5.90;99.90;;;;;;5095680;28;20422;-60
2021/03/10 08:37:08;;;;;;;69.45;33.63;;;6.00;99.90;;;;;;5091854;28;20031;-60
2021/03/10 08:39:40;;;;;;;72.20;35.97;;;6.00;99.90;;;;;;5089830;28;20032;-60
2021/03/10 08:42:06;;;;;;;73.40;34.13;;;6.00;99.90;;;;;;5091358;28;20016;-61
2021/03/10 08:44:38;;;;;;;81.18;34.95;;;6.00;99.90;;;;;;5102156;28;20030;-61
2021/03/10 08:47:09;;;;;;;;;;;5.90;99.90;;;;;;5095035;28;20419;-60
2021/03/10 08:49:34;;;;;;;74.53;32.85;;;6.00;99.90;;;;;;5106217;28;19993;-61
2021/03/10 08:52:15;;;;;;;71.85;33.13;;;6.00;99.90;;;;;;5081812;28;20017;-60
2021/03/10 08:54:55;;;;;;;72.95;33.85;;;5.90;99.90;;;;;;5080240;28;20028;-60
2021/03/10 08:57:32;;;;;;;68.45;32.47;;;6.00;99.90;;;;;;5095181;28;20028;-62
2021/03/10 09:00:00;;;;;;;62.88;32.38;;;6.00;99.90;;;;;;5094690;28;20016;-61
2021/03/10 09:02:31;;;;;;;74.78;31.95;;;6.00;99.90;;;;;;5089202;28;20501;-61
2021/03/10 09:04:58;;;;;;;63.92;32.95;;;6.10;99.90;;;;;;5092341;28;20032;-61
2021/03/10 09:07:24;;;;;;;59.45;30.38;;;6.10;99.90;;;;;;5095332;28;20032;-61
2021/03/10 09:09:56;;;;;;;62.05;32.00;;;6.10;99.90;;;;;;5094845;28;20035;-60
2021/03/10 09:12:22;;;;;;;62.42;31.02;;;6.20;99.90;;;;;;5096751;28;20028;-61
2021/03/10 09:14:48;;;;;;;62.65;30.33;;;6.30;99.90;;;;;;5112587;28;20039;-61
2021/03/10 09:17:14;;;;;;;59.75;28.00;;;6.30;99.90;;;;;;5105286;28;20031;-61
2021/03/10 09:19:48;;;;;;;65.40;28.65;;;6.30;99.90;;;;;;5106331;28;20023;-62
2021/03/10 09:22:19;;;;;;;58.00;29.42;;;6.40;99.90;;;;;;5098793;28;20016;-61
2021/03/10 09:25:10;;;;;;;58.45;28.65;;;6.40;99.90;;;;;;5088876;28;20028;-61
2021/03/10 09:27:36;;;;;;;53.40;27.58;;;6.50;99.90;;;;;;5094507;28;20028;-61
2021/03/10 09:30:07;;;;;;;49.42;27.85;;;6.50;99.90;;;;;;5098460;28;20103;-61
2021/03/10 09:32:41;;;;;;;49.97;26.73;;;6.50;99.90;;;;;;5097824;28;20011;-60
2021/03/10 09:35:19;;;;;;;45.92;25.13;;;6.50;99.90;;;;;;5101973;28;20020;-60
2021/03/10 09:37:53;;;;;;;45.65;23.52;;;6.60;99.90;;;;;;5095176;28;20035;-62
2021/03/10 09:40:31;;;;;;;53.03;25.90;;;6.70;99.90;;;;;;5093157;28;20023;-60
2021/03/10 09:43:02;;;;;;;51.13;24.08;;;6.80;99.90;;;;;;5092984;28;20578;-60
2021/03/10 09:45:30;;;;;;;47.75;25.50;;;6.80;99.90;;;;;;5093278;28;20508;-60
2021/03/10 09:47:55;;;;;;;42.92;23.05;;;6.80;99.90;;;;;;5082319;28;20028;-61
2021/03/10 09:50:27;;;;;;;45.05;23.50;;;6.80;99.90;;;;;;5087417;28;20028;-60
2021/03/10 09:52:53;;;;;;;43.33;22.95;;;6.80;99.90;;;;;;5083932;28;20051;-60
2021/03/10 09:55:21;;;;;;;43.67;22.55;;;6.90;99.90;;;;;;5091948;28;20060;-61
2021/03/10 09:57:47;;;;;;;45.10;21.88;;;7.00;99.90;;;;;;5092252;28;20020;-61
2021/03/10 10:00:22;;;;;;;41.22;21.83;;;7.10;99.90;;;;;;5091952;28;20055;-61
2021/03/10 10:02:48;;;;;;;44.90;21.00;;;7.20;99.90;;;;;;5087653;28;20110;-61
2021/03/10 10:05:27;;;;;;;39.35;20.98;;;7.30;99.90;;;;;;5095961;28;20054;-61
2021/03/10 10:07:55;;;;;;;45.10;21.98;;;7.30;99.90;;;;;;5088895;28;20301;-60
2021/03/10 10:10:21;;;;;;;42.95;20.90;;;7.40;99.90;;;;;;5097532;28;20155;-61
2021/03/10 10:12:49;;;;;;;38.05;19.33;;;7.40;99.90;;;;;;5087959;28;20055;-61
2021/03/10 10:15:17;;;;;;;37.78;20.40;;;7.40;99.90;;;;;;5064628;28;20085;-61
2021/03/10 10:17:54;;;;;;;36.95;19.70;;;7.50;99.90;;;;;;5074972;28;20039;-62
2021/03/10 10:20:23;;;;;;;37.13;19.80;;;7.60;99.90;;;;;;5071749;28;20045;-60
2021/03/10 10:22:49;;;;;;;35.90;18.58;;;7.60;99.90;;;;;;5068588;28;20035;-61
2021/03/10 10:25:16;;;;;;;34.92;19.65;;;7.60;99.90;;;;;;5073322;28;20031;-60
2021/03/10 10:27:43;;;;;;;41.45;20.35;;;7.70;99.90;;;;;;5071658;28;20036;-61
2021/03/10 10:30:10;;;;;;;41.53;20.02;;;7.70;99.90;;;;;;5074659;28;20016;-61
2021/03/10 10:32:35;;;;;;;39.08;18.33;;;7.80;99.90;;;;;;5071540;28;20088;-61
2021/03/10 10:35:01;;;;;;;35.35;18.05;;;7.80;99.90;;;;;;5068018;28;20084;-61
2021/03/10 10:37:27;;;;;;;34.05;18.88;;;7.90;99.90;;;;;;5070980;28;20482;-60
2021/03/10 10:39:53;;;;;;;34.42;17.55;;;7.90;99.90;;;;;;5074305;28;20019;-61
2021/03/10 10:42:19;;;;;;;31.00;17.90;;;7.90;99.90;;;;;;5073143;28;20021;-61
2021/03/10 10:44:44;;;;;;;36.58;18.45;;;8.00;99.90;;;;;;5072804;28;20028;-61
2021/03/10 10:47:10;;;;;;;39.13;18.52;;;8.00;99.90;;;;;;5058075;28;20017;-60
2021/03/10 10:49:36;;;;;;;35.55;18.95;;;8.10;99.90;;;;;;5072610;28;20031;-61
2021/03/10 10:52:02;;;;;;;37.72;18.88;;;8.20;99.90;;;;;;5072401;28;20017;-60
2021/03/10 10:54:28;;;;;;;32.03;17.75;;;8.20;99.90;;;;;;5071268;28;20029;-61
2021/03/10 10:56:53;;;;;;;31.50;16.80;;;8.30;99.90;;;;;;5054232;28;20159;-61
2021/03/10 10:59:19;;;;;;;31.58;17.35;;;8.30;99.90;;;;;;5072285;28;20020;-60
2021/03/10 11:01:45;;;;;;;28.63;15.55;;;8.30;99.90;;;;;;5072548;28;20029;-61
2021/03/10 11:04:11;;;;;;;33.53;16.10;;;8.40;99.90;;;;;;5073101;28;20043;-61
2021/03/10 11:06:37;;;;;;;31.15;17.10;;;8.50;99.90;;;;;;5073183;28;20024;-61
2021/03/10 11:09:03;;;;;;;33.50;17.67;;;8.60;99.90;;;;;;5074712;28;20386;-60
2021/03/10 11:11:28;;;;;;;28.83;15.52;;;8.70;99.90;;;;;;5073699;28;20029;-61
2021/03/10 11:13:54;;;;;;;36.20;15.57;;;8.70;99.90;;;;;;5076504;28;20123;-61
2021/03/10 11:16:20;;;;;;;25.98;15.43;;;8.80;99.90;;;;;;5093477;28;20022;-61
2021/03/10 11:18:45;;;;;;;31.08;17.20;;;9.00;99.90;;;;;;5099092;28;20102;-62
2021/03/10 11:21:11;;;;;;;28.88;16.65;;;9.10;99.90;;;;;;5105825;28;20020;-60
2021/03/10 11:23:37;;;;;;;27.90;16.80;;;9.20;99.90;;;;;;5104807;28;20024;-62
2021/03/10 11:26:02;;;;;;;28.15;16.45;;;9.30;99.90;;;;;;5102337;28;20048;-61
2021/03/10 11:28:28;;;;;;;37.20;15.98;;;9.20;99.90;;;;;;5099368;28;20389;-62
2021/03/10 11:30:54;;;;;;;32.83;16.77;;;9.20;99.90;;;;;;5085490;28;20025;-60
2021/03/10 11:33:20;;;;;;;30.70;15.25;;;9.40;99.90;;;;;;5091029;28;20024;-61
2021/03/10 11:35:45;;;;;;;31.67;17.17;;;9.50;99.90;;;;;;5092817;28;20028;-61
2021/03/10 11:38:11;;;;;;;31.33;16.27;;;9.50;99.90;;;;;;5087975;28;20024;-60
2021/03/10 11:40:37;;;;;;;28.23;15.35;;;9.50;99.90;;;;;;5092474;28;20322;-60
2021/03/10 11:43:03;;;;;;;35.78;15.93;;;9.50;99.90;;;;;;5090271;28;20461;-62
2021/03/10 11:45:29;;;;;;;33.13;16.08;;;9.50;99.90;;;;;;5091959;28;20065;-61
2021/03/10 11:47:55;;;;;;;29.27;15.38;;;9.50;99.90;;;;;;5091853;28;20370;-61
2021/03/10 11:50:20;;;;;;;30.98;16.77;;;9.50;99.90;;;;;;5089895;28;20035;-61
2021/03/10 11:52:46;;;;;;;27.30;15.70;;;9.50;99.90;;;;;;5092921;28;20031;-62
2021/03/10 11:55:13;;;;;;;32.72;17.77;;;9.50;99.90;;;;;;5097088;28;20035;-60
2021/03/10 11:57:39;;;;;;;32.45;16.58;;;9.60;99.90;;;;;;5089150;28;20012;-63
2021/03/10 12:00:06;;;;;;;28.02;16.60;;;9.60;99.90;;;;;;5103670;28;20028;-61
2021/03/10 12:02:32;;;;;;;33.97;17.08;;;9.60;99.90;;;;;;5100008;28;20020;-61
2021/03/10 12:04:57;;;;;;;37.17;17.33;;;9.70;99.90;;;;;;5094184;28;20107;-61
2021/03/10 12:07:23;;;;;;;32.78;17.95;;;9.70;99.90;;;;;;5075227;28;20089;-63
2021/03/10 12:09:49;;;;;;;29.10;16.17;;;9.70;99.90;;;;;;5082225;28;20065;-61
2021/03/10 12:12:15;;;;;;;32.55;16.92;;;9.80;99.90;;;;;;5073094;28;20443;-62
2021/03/10 12:14:40;;;;;;;35.97;16.38;;;9.80;99.90;;;;;;5077813;28;20040;-61
2021/03/10 12:17:06;;;;;;;30.98;16.30;;;9.90;99.90;;;;;;5072188;28;20020;-62
2021/03/10 12:19:32;;;;;;;29.17;14.70;;;10.10;99.90;;;;;;5089767;28;20059;-62
2021/03/10 12:21:58;;;;;;;38.88;17.27;;;10.10;99.90;;;;;;5091250;28;20032;-62
2021/03/10 12:24:23;;;;;;;29.70;15.95;;;10.10;99.90;;;;;;5089777;28;20553;-61
2021/03/10 12:26:49;;;;;;;28.25;14.77;;;10.00;99.90;;;;;;5089835;28;20032;-60
2021/03/10 12:29:16;;;;;;;29.02;14.20;;;9.80;99.90;;;;;;5093102;28;20392;-60
2021/03/10 12:31:41;;;;;;;29.75;15.55;;;9.80;99.90;;;;;;5098804;28;20056;-61
2021/03/10 12:34:07;;;;;;;29.33;14.88;;;9.80;99.90;;;;;;5094793;28;20545;-61
2021/03/10 12:36:32;;;;;;;27.23;15.50;;;9.90;99.90;;;;;;5092971;28;20019;-61
2021/03/10 12:38:58;;;;;;;27.95;14.75;;;9.90;99.90;;;;;;5089348;28;20028;-61
2021/03/10 12:41:24;;;;;;;28.23;15.52;;;10.00;99.90;;;;;;5090303;28;20060;-64